createdAt,value
2023-02-12T00:02:23.041Z,66.19
2023-02-12T00:04:53.709Z,66.09
2023-02-12T00:07:23.692Z,66.54
2023-02-12T00:09:53.754Z,66.50
2023-02-12T00:12:24.265Z,66.94
2023-02-12T00:14:54.295Z,67.08
2023-02-12T00:17:24.334Z,67.77
2023-02-12T00:19:54.357Z,68.14
2023-02-12T00:22:24.380Z,68.10
2023-02-12T00:24:54.690Z,68.30
2023-02-12T00:27:25.123Z,68.82
2023-02-12T00:29:55.140Z,68.50
2023-02-12T00:32:25.701Z,68.92
2023-02-12T00:34:55.741Z,68.58
2023-02-12T00:37:25.744Z,68.84
2023-02-12T00:39:56.715Z,69.16
2023-02-12T00:42:26.805Z,69.36
2023-02-12T00:44:56.796Z,68.83
2023-02-12T00:47:26.910Z,69.64
2023-02-12T00:49:56.921Z,69.76
2023-02-12T00:52:27.131Z,69.48
2023-02-12T00:54:57.725Z,69.95
2023-02-12T00:57:27.719Z,69.71
2023-02-12T00:59:59.517Z,69.56
2023-02-12T01:02:29.564Z,69.36
2023-02-12T01:05:00.288Z,68.79
2023-02-12T01:07:30.642Z,68.74
2023-02-12T01:10:00.827Z,68.89
2023-02-12T01:12:32.550Z,69.11
2023-02-12T01:15:02.948Z,68.73
2023-02-12T01:17:33.567Z,69.02
2023-02-12T01:20:03.967Z,68.53
2023-02-12T01:22:36.676Z,68.70
2023-02-12T01:25:07.380Z,69.03
2023-02-12T01:27:37.366Z,68.75
2023-02-12T01:30:08.610Z,66.98
2023-02-12T01:32:39.462Z,67.62
2023-02-12T01:35:11.236Z,68.17
2023-02-12T01:37:43.880Z,68.47
2023-02-12T01:40:17.304Z,68.62
2023-02-12T01:42:48.580Z,69.59
2023-02-12T01:45:18.766Z,68.40
2023-02-12T01:47:49.129Z,67.25
2023-02-12T01:50:21.563Z,66.42
2023-02-12T01:52:56.589Z,67.12
2023-02-12T01:55:26.812Z,66.32
2023-02-12T01:57:56.808Z,67.12
2023-02-12T02:00:27.527Z,65.82
2023-02-12T02:03:00.191Z,66.24
2023-02-12T02:05:31.531Z,65.77
2023-02-12T02:08:01.797Z,64.60
2023-02-12T02:10:32.415Z,65.36
2023-02-12T02:13:20.755Z,65.62
2023-02-12T02:15:52.905Z,65.80
2023-02-12T02:18:32.447Z,66.73
2023-02-12T02:21:22.464Z,66.24
2023-02-12T02:24:01.354Z,65.87
2023-02-12T02:26:56.366Z,65.01
2023-02-12T02:29:35.402Z,65.40
2023-02-12T02:32:14.546Z,65.02
2023-02-12T02:34:47.490Z,65.23
2023-02-12T02:37:21.183Z,65.53
2023-02-12T02:39:59.622Z,65.03
2023-02-12T02:42:29.639Z,65.43
2023-02-12T02:44:59.698Z,65.01
2023-02-12T02:47:35.683Z,65.27
2023-02-12T02:50:08.048Z,64.91
2023-02-12T02:52:58.277Z,65.29
2023-02-12T02:55:32.378Z,65.03
2023-02-12T02:58:15.241Z,65.13
2023-02-12T03:00:48.727Z,64.93
2023-02-12T03:03:24.746Z,64.65
2023-02-12T03:05:58.004Z,64.41
2023-02-12T03:08:31.196Z,64.45
2023-02-12T03:11:09.758Z,64.85
2023-02-12T03:13:45.280Z,64.41
2023-02-12T03:16:27.561Z,64.77
2023-02-12T03:19:10.513Z,64.20
2023-02-12T03:21:46.514Z,64.40
2023-02-12T03:24:19.535Z,64.58
2023-02-12T03:26:52.921Z,64.28
2023-02-12T03:29:23.016Z,64.10
2023-02-12T03:31:57.793Z,64.11
2023-02-12T03:34:48.956Z,64.56
2023-02-12T03:37:21.988Z,64.02
2023-02-12T03:39:58.561Z,65.32
2023-02-12T03:42:35.367Z,65.97
2023-02-12T03:45:11.619Z,66.47
2023-02-12T03:47:44.428Z,66.59
2023-02-12T03:50:28.471Z,66.43
2023-02-12T03:52:58.951Z,67.19
2023-02-12T03:55:29.508Z,67.06
2023-02-12T03:58:02.388Z,66.83
2023-02-12T04:00:32.993Z,67.14
2023-02-12T04:03:03.074Z,67.22
2023-02-12T04:05:33.377Z,67.67
2023-02-12T04:08:10.783Z,67.20
2023-02-12T04:10:48.527Z,67.10
2023-02-12T04:13:27.590Z,67.18
2023-02-12T04:16:18.182Z,67.32
2023-02-12T04:18:51.077Z,67.25
2023-02-12T04:21:33.167Z,67.18
2023-02-12T04:24:21.677Z,66.92
2023-02-12T04:26:56.516Z,67.16
2023-02-12T04:29:35.701Z,67.72
2023-02-12T04:32:05.834Z,67.33
2023-02-12T04:34:36.111Z,66.65
2023-02-12T04:37:14.478Z,66.88
2023-02-12T04:39:46.156Z,66.43
2023-02-12T04:42:17.229Z,66.67
2023-02-12T04:44:47.527Z,66.27
2023-02-12T04:47:18.262Z,66.31
2023-02-12T04:49:48.549Z,65.50
2023-02-12T04:52:18.799Z,65.80
2023-02-12T04:54:49.129Z,65.11
2023-02-12T04:57:19.251Z,65.14
2023-02-12T04:59:49.452Z,64.94
2023-02-12T05:02:19.789Z,65.03
2023-02-12T05:04:51.131Z,64.17
2023-02-12T05:07:21.248Z,64.04
2023-02-12T05:09:51.405Z,63.67
2023-02-12T05:12:21.521Z,63.45
2023-02-12T05:14:51.633Z,63.14
2023-02-12T05:17:23.714Z,63.07
2023-02-12T05:19:54.312Z,62.75
2023-02-12T05:22:24.574Z,62.59
2023-02-12T05:24:54.905Z,62.25
2023-02-12T05:27:26.369Z,62.09
2023-02-12T05:29:58.226Z,61.81
2023-02-12T05:32:28.536Z,61.52
2023-02-12T05:34:58.653Z,61.44
2023-02-12T05:37:28.954Z,61.16
2023-02-12T05:39:59.175Z,60.98
2023-02-12T05:42:30.994Z,60.96
2023-02-12T05:45:01.114Z,60.65
2023-02-12T05:47:31.303Z,60.26
2023-02-12T05:50:01.572Z,60.38
2023-02-12T05:52:32.018Z,60.57
2023-02-12T05:55:02.254Z,59.91
2023-02-12T05:57:33.263Z,59.87
2023-02-12T06:00:03.588Z,60.50
2023-02-12T06:02:42.003Z,61.01
2023-02-12T06:05:12.269Z,61.86
2023-02-12T06:07:42.858Z,62.40
2023-02-12T06:10:13.286Z,62.49
2023-02-12T06:12:43.544Z,60.47
2023-02-12T06:15:13.690Z,58.43
2023-02-12T06:17:43.894Z,57.67
2023-02-12T06:20:14.239Z,55.22
2023-02-12T06:22:44.449Z,54.71
2023-02-12T06:25:14.584Z,53.47
2023-02-12T06:27:44.900Z,51.84
2023-02-12T06:30:15.600Z,50.49
2023-02-12T06:32:45.889Z,49.49
2023-02-12T06:35:16.071Z,48.19
2023-02-12T06:37:46.215Z,47.06
2023-02-12T06:40:16.571Z,46.91
2023-02-12T06:42:47.039Z,46.00
2023-02-12T06:45:17.218Z,45.43
2023-02-12T06:47:47.532Z,44.64
2023-02-12T06:50:18.423Z,44.60
2023-02-12T06:52:49.027Z,43.68
2023-02-12T06:55:19.396Z,44.64
2023-02-12T06:57:49.575Z,44.07
2023-02-12T07:00:20.082Z,44.17
2023-02-12T07:02:59.068Z,43.78
2023-02-12T07:05:29.430Z,43.04
2023-02-12T07:08:00.134Z,42.29
2023-02-12T07:10:30.328Z,42.52
2023-02-12T07:13:00.492Z,42.16
2023-02-12T07:15:30.607Z,42.07
2023-02-12T07:18:00.866Z,41.84
2023-02-12T07:20:31.121Z,41.81
2023-02-12T07:23:01.470Z,41.93
2023-02-12T07:25:31.836Z,41.66
2023-02-12T07:28:02.358Z,41.42
2023-02-12T07:30:32.605Z,41.69
2023-02-12T07:33:02.782Z,41.14
2023-02-12T07:35:32.991Z,41.45
2023-02-12T07:38:03.320Z,41.63
2023-02-12T07:40:33.901Z,40.76
2023-02-12T07:43:08.798Z,41.06
2023-02-12T07:45:39.427Z,40.70
2023-02-12T07:48:09.720Z,40.61
2023-02-12T07:50:39.841Z,40.61
2023-02-12T07:53:09.986Z,40.41
2023-02-12T07:55:40.255Z,40.44
2023-02-12T07:58:10.524Z,40.62
2023-02-12T08:00:41.861Z,40.35
2023-02-12T08:03:12.112Z,41.60
2023-02-12T08:05:42.213Z,41.70
2023-02-12T08:08:12.487Z,40.73
2023-02-12T08:10:42.946Z,40.78
2023-02-12T08:13:13.341Z,40.65
2023-02-12T08:15:43.515Z,40.33
2023-02-12T08:18:13.684Z,40.14
2023-02-12T08:20:43.950Z,40.36
2023-02-12T08:23:14.329Z,40.37
2023-02-12T08:25:44.755Z,40.39
2023-02-12T08:28:15.367Z,40.75
2023-02-12T08:30:46.216Z,40.75
2023-02-12T08:33:16.607Z,40.59
2023-02-12T08:35:47.396Z,40.04
2023-02-12T08:38:17.627Z,40.10
2023-02-12T08:40:47.993Z,39.99
2023-02-12T08:43:18.280Z,41.06
2023-02-12T08:45:48.467Z,41.75
2023-02-12T08:48:18.792Z,42.92
2023-02-12T08:50:49.182Z,43.00
2023-02-12T08:53:19.696Z,44.64
2023-02-12T08:55:51.053Z,45.23
2023-02-12T08:58:21.357Z,45.72
2023-02-12T09:00:52.170Z,51.16
2023-02-12T09:03:22.365Z,54.42
2023-02-12T09:05:53.334Z,55.66
2023-02-12T09:08:23.442Z,57.45
2023-02-12T09:10:53.598Z,57.59
2023-02-12T09:13:23.709Z,58.32
2023-02-12T09:15:54.332Z,58.22
2023-02-12T09:18:24.431Z,57.03
2023-02-12T09:20:54.461Z,56.13
2023-02-12T09:23:24.584Z,55.71
2023-02-12T09:25:55.020Z,55.62
2023-02-12T09:28:25.717Z,55.58
2023-02-12T09:30:57.378Z,56.06
2023-02-12T09:33:27.516Z,56.01
2023-02-12T09:35:58.303Z,56.19
2023-02-12T09:38:28.554Z,56.81
2023-02-12T09:41:01.660Z,56.63
2023-02-12T09:43:36.536Z,56.93
2023-02-12T09:46:18.889Z,57.30
2023-02-12T09:48:58.588Z,57.11
2023-02-12T09:51:30.589Z,57.27
2023-02-12T09:54:15.097Z,57.51
2023-02-12T09:56:54.425Z,57.69
2023-02-12T09:59:37.128Z,57.84
2023-02-12T10:02:17.270Z,57.86
2023-02-12T10:05:00.270Z,58.70
2023-02-12T10:07:58.673Z,58.96
2023-02-12T10:10:52.009Z,59.41
2023-02-12T10:13:22.114Z,60.38
2023-02-12T10:16:04.776Z,61.02
2023-02-12T10:18:53.503Z,60.44
2023-02-12T10:21:26.442Z,60.84
2023-02-12T10:24:02.856Z,61.27
2023-02-12T10:26:38.932Z,61.57
2023-02-12T10:29:20.783Z,61.17
2023-02-12T10:31:55.096Z,61.17
2023-02-12T10:34:32.469Z,60.76
2023-02-12T10:37:11.564Z,60.60
2023-02-12T10:39:49.311Z,60.36
2023-02-12T10:42:37.621Z,60.28
2023-02-12T10:45:08.236Z,60.22
2023-02-12T10:47:38.363Z,60.23
2023-02-12T10:50:29.162Z,60.27
2023-02-12T10:53:04.722Z,60.40
2023-02-12T10:55:35.837Z,60.33
2023-02-12T10:58:06.835Z,60.53
2023-02-12T11:00:38.444Z,60.60
2023-02-12T11:03:08.635Z,60.33
2023-02-12T11:05:40.838Z,60.26
2023-02-12T11:08:28.233Z,60.03
2023-02-12T11:11:04.432Z,60.45
2023-02-12T11:13:35.283Z,60.31
2023-02-12T11:16:05.626Z,60.00
2023-02-12T11:18:36.079Z,60.07
2023-02-12T11:21:13.626Z,59.89
2023-02-12T11:23:46.671Z,60.15
2023-02-12T11:26:19.647Z,59.85
2023-02-12T11:29:01.126Z,59.87
2023-02-12T11:31:36.664Z,59.82
2023-02-12T11:34:25.612Z,59.98
2023-02-12T11:36:56.340Z,60.08
2023-02-12T11:39:30.879Z,59.72
2023-02-12T11:42:03.353Z,59.72
2023-02-12T11:44:36.253Z,59.80
2023-02-12T11:47:12.096Z,59.81
2023-02-12T11:49:57.460Z,60.16
2023-02-12T11:52:33.352Z,60.28
2023-02-12T11:55:05.084Z,60.40
2023-02-12T11:57:41.725Z,60.36
2023-02-12T12:00:19.851Z,60.46
2023-02-12T12:03:15.972Z,60.68
2023-02-12T12:05:48.890Z,60.61
2023-02-12T12:08:23.328Z,61.03
2023-02-12T12:10:58.440Z,60.84
2023-02-12T12:13:36.971Z,60.64
2023-02-12T12:16:38.973Z,61.01
2023-02-12T12:19:32.915Z,60.78
2023-02-12T12:22:06.103Z,60.74
2023-02-12T12:24:54.967Z,60.90
2023-02-12T12:27:48.358Z,60.88
2023-02-12T12:30:22.460Z,61.14
2023-02-12T12:32:54.513Z,60.77
2023-02-12T12:35:30.445Z,60.89
2023-02-12T12:38:16.987Z,61.16
2023-02-12T12:41:01.177Z,62.94
2023-02-12T12:43:49.735Z,63.60
2023-02-12T12:46:33.707Z,64.00
2023-02-12T12:49:14.004Z,64.18
2023-02-12T12:51:54.978Z,63.86
2023-02-12T12:54:46.985Z,64.00
2023-02-12T12:57:25.911Z,63.57
2023-02-12T13:00:14.427Z,63.64
2023-02-12T13:02:44.935Z,63.59
2023-02-12T13:05:24.023Z,63.50
2023-02-12T13:08:06.322Z,63.74
2023-02-12T13:11:00.626Z,63.73
2023-02-12T13:13:45.504Z,64.37
2023-02-12T13:16:18.738Z,63.96
2023-02-12T13:18:51.999Z,64.10
2023-02-12T13:21:22.159Z,64.15
2023-02-12T13:23:59.778Z,63.95
2023-02-12T13:26:32.121Z,64.31
2023-02-12T13:29:14.060Z,64.02
2023-02-12T13:31:49.650Z,64.24
2023-02-12T13:34:20.931Z,63.96
2023-02-12T13:36:51.438Z,64.46
2023-02-12T13:39:31.689Z,64.62
2023-02-12T13:42:05.858Z,65.47
2023-02-12T13:44:56.457Z,65.57
2023-02-12T13:47:44.844Z,65.46
2023-02-12T13:50:33.997Z,65.20
2023-02-12T13:53:15.175Z,65.10
2023-02-12T13:56:23.766Z,65.35
2023-02-12T13:58:54.922Z,65.60
2023-02-12T14:01:47.061Z,65.27
2023-02-12T14:04:24.634Z,65.48
2023-02-12T14:07:03.560Z,65.61
2023-02-12T14:09:38.175Z,66.38
2023-02-12T14:12:10.993Z,66.53
2023-02-12T14:14:41.589Z,66.64
2023-02-12T14:17:30.332Z,66.42
2023-02-12T14:20:18.886Z,66.90
2023-02-12T14:22:49.597Z,67.53
2023-02-12T14:25:25.871Z,65.84
2023-02-12T14:28:02.948Z,61.92
2023-02-12T14:30:36.754Z,59.13
2023-02-12T14:33:09.196Z,58.04
2023-02-12T14:35:42.354Z,55.13
2023-02-12T14:38:21.698Z,53.95
2023-02-12T14:40:52.906Z,53.90
2023-02-12T14:43:29.414Z,51.98
2023-02-12T14:46:00.939Z,50.49
2023-02-12T14:48:50.065Z,48.79
2023-02-12T14:51:35.386Z,47.80
2023-02-12T14:54:08.463Z,46.95
2023-02-12T14:56:43.712Z,45.88
2023-02-12T14:59:18.346Z,45.89
2023-02-12T15:01:49.811Z,45.73
2023-02-12T15:04:31.694Z,45.19
2023-02-12T15:07:14.644Z,44.54
2023-02-12T15:09:53.163Z,44.69
2023-02-12T15:12:34.030Z,44.38
2023-02-12T15:15:16.891Z,45.35
2023-02-12T15:17:54.289Z,44.49
2023-02-12T15:20:33.766Z,43.66
2023-02-12T15:23:06.460Z,43.52
2023-02-12T15:25:36.904Z,43.07
2023-02-12T15:28:23.510Z,43.20
2023-02-12T15:30:55.693Z,42.71
2023-02-12T15:33:30.665Z,42.62
2023-02-12T15:36:02.752Z,42.21
2023-02-12T15:38:53.809Z,41.78
2023-02-12T15:41:30.133Z,42.53
2023-02-12T15:44:01.666Z,43.19
2023-02-12T15:46:32.415Z,43.92
2023-02-12T15:49:02.746Z,44.88
2023-02-12T15:51:33.513Z,46.93
2023-02-12T15:54:06.267Z,46.58
2023-02-12T15:56:37.761Z,46.00
2023-02-12T15:59:08.488Z,45.62
2023-02-12T16:01:40.510Z,44.79
2023-02-12T16:04:10.837Z,44.34
2023-02-12T16:06:41.067Z,44.06
2023-02-12T16:09:27.525Z,43.43
2023-02-12T16:11:59.563Z,43.33
2023-02-12T16:14:33.952Z,43.47
2023-02-12T16:17:04.277Z,42.98
2023-02-12T16:19:34.906Z,42.89
2023-02-12T16:22:07.904Z,43.03
2023-02-12T16:24:41.906Z,42.70
2023-02-12T16:27:32.355Z,42.87
2023-02-12T16:30:07.184Z,42.74
2023-02-12T16:32:44.364Z,42.93
2023-02-12T16:35:14.695Z,42.62
2023-02-12T16:37:47.072Z,42.87
2023-02-12T16:40:17.127Z,44.25
2023-02-12T16:42:50.013Z,47.08
2023-02-12T16:45:35.997Z,49.24
2023-02-12T16:48:18.382Z,51.35
2023-02-12T16:50:54.323Z,53.07
2023-02-12T16:53:28.938Z,53.96
2023-02-12T16:56:03.369Z,54.21
2023-02-12T16:58:33.517Z,54.31
2023-02-12T17:01:05.127Z,56.44
2023-02-12T17:03:36.385Z,55.24
2023-02-12T17:06:06.797Z,54.11
2023-02-12T17:08:36.957Z,53.16
2023-02-12T17:11:07.851Z,52.68
2023-02-12T17:13:39.352Z,51.87
2023-02-12T17:16:11.212Z,51.18
2023-02-12T17:18:43.285Z,51.16
2023-02-12T17:21:26.688Z,52.36
2023-02-12T17:23:56.853Z,53.65
2023-02-12T17:26:27.230Z,56.24
2023-02-12T17:28:59.131Z,57.37
2023-02-12T17:31:30.962Z,59.19
2023-02-12T17:34:01.055Z,59.95
2023-02-12T17:36:31.123Z,59.47
2023-02-12T17:39:01.855Z,57.21
2023-02-12T17:41:32.341Z,55.78
2023-02-12T17:44:02.645Z,54.68
2023-02-12T17:46:33.362Z,53.93
2023-02-12T17:49:03.937Z,53.24
2023-02-12T17:51:33.915Z,52.73
2023-02-12T17:54:03.973Z,51.77
2023-02-12T17:56:34.306Z,51.64
2023-02-12T17:59:04.450Z,53.14
2023-02-12T18:01:36.837Z,55.39
2023-02-12T18:04:06.895Z,57.33
2023-02-12T18:06:36.948Z,58.74
2023-02-12T18:09:07.047Z,59.07
2023-02-12T18:11:39.474Z,59.58
2023-02-12T18:14:09.923Z,61.03
2023-02-12T18:16:40.011Z,60.05
2023-02-12T18:19:10.046Z,58.17
2023-02-12T18:21:40.203Z,56.85
2023-02-12T18:24:10.223Z,56.10
2023-02-12T18:26:40.418Z,55.33
2023-02-12T18:29:11.012Z,54.61
2023-02-12T18:31:41.124Z,55.13
2023-02-12T18:34:11.288Z,56.35
2023-02-12T18:36:41.294Z,57.86
2023-02-12T18:39:11.350Z,60.04
2023-02-12T18:41:41.818Z,60.07
2023-02-12T18:44:11.763Z,60.27
2023-02-12T18:46:42.062Z,61.08
2023-02-12T18:49:13.689Z,61.72
2023-02-12T18:51:44.068Z,59.77
2023-02-12T18:54:15.383Z,58.63
2023-02-12T18:56:46.462Z,57.21
2023-02-12T18:59:17.206Z,56.81
2023-02-12T19:01:48.696Z,55.79
2023-02-12T19:04:19.976Z,56.45
2023-02-12T19:06:53.705Z,57.96
2023-02-12T19:09:25.717Z,59.93
2023-02-12T19:11:57.679Z,60.21
2023-02-12T19:14:28.791Z,61.87
2023-02-12T19:16:58.733Z,61.74
2023-02-12T19:19:29.088Z,62.15
2023-02-12T19:21:59.180Z,62.83
2023-02-12T19:24:44.364Z,61.02
2023-02-12T19:27:16.140Z,59.62
2023-02-12T19:29:46.654Z,57.94
2023-02-12T19:32:16.670Z,57.33
2023-02-12T19:34:47.377Z,56.59
2023-02-12T19:37:17.805Z,57.74
2023-02-12T19:39:47.918Z,58.97
2023-02-12T19:42:19.067Z,60.60
2023-02-12T19:44:49.230Z,60.63
2023-02-12T19:47:19.304Z,62.76
2023-02-12T19:49:49.334Z,63.19
2023-02-12T19:52:19.795Z,63.12
2023-02-12T19:54:49.922Z,63.13
2023-02-12T19:57:20.463Z,61.42
2023-02-12T19:59:50.584Z,59.92
2023-02-12T20:02:36.178Z,58.84
2023-02-12T20:05:06.289Z,57.90
2023-02-12T20:07:36.304Z,57.31
2023-02-12T20:10:06.488Z,58.19
2023-02-12T20:12:41.486Z,59.87
2023-02-12T20:15:11.893Z,61.21
2023-02-12T20:17:42.059Z,61.75
2023-02-12T20:20:12.718Z,63.11
2023-02-12T20:22:42.699Z,64.02
2023-02-12T20:25:12.916Z,63.52
2023-02-12T20:27:42.883Z,64.21
2023-02-12T20:30:13.268Z,62.10
2023-02-12T20:32:45.848Z,60.69
2023-02-12T20:35:16.392Z,59.56
2023-02-12T20:37:47.467Z,58.16
2023-02-12T20:40:17.621Z,57.34
2023-02-12T20:42:47.636Z,58.96
2023-02-12T20:45:17.674Z,59.92
2023-02-12T20:47:47.675Z,61.26
2023-02-12T20:50:17.874Z,62.36
2023-02-12T20:52:47.909Z,63.97
2023-02-12T20:55:17.959Z,64.54
2023-02-12T20:57:47.959Z,65.84
2023-02-12T21:00:21.382Z,66.03
2023-02-12T21:02:52.055Z,64.70
2023-02-12T21:05:22.565Z,62.74
2023-02-12T21:07:52.588Z,61.26
2023-02-12T21:10:24.642Z,59.88
2023-02-12T21:12:54.688Z,59.08
2023-02-12T21:15:25.569Z,60.21
2023-02-12T21:17:55.649Z,60.93
2023-02-12T21:20:25.772Z,62.24
2023-02-12T21:22:55.766Z,63.14
2023-02-12T21:25:25.764Z,64.04
2023-02-12T21:27:55.851Z,64.39
2023-02-12T21:30:26.449Z,65.92
2023-02-12T21:32:56.535Z,65.87
2023-02-12T21:35:26.880Z,64.62
2023-02-12T21:37:56.907Z,62.73
2023-02-12T21:40:27.387Z,61.44
2023-02-12T21:42:58.084Z,60.38
2023-02-12T21:45:31.186Z,60.68
2023-02-12T21:48:01.894Z,62.05
2023-02-12T21:50:32.019Z,63.03
2023-02-12T21:53:02.536Z,64.36
2023-02-12T21:55:32.504Z,64.39
2023-02-12T21:58:02.619Z,64.58
2023-02-12T22:00:32.828Z,65.61
2023-02-12T22:03:02.827Z,65.05
2023-02-12T22:05:35.825Z,65.70
2023-02-12T22:08:06.083Z,63.79
2023-02-12T22:10:37.552Z,62.24
2023-02-12T22:13:07.602Z,61.46
2023-02-12T22:15:38.069Z,61.07
2023-02-12T22:18:08.637Z,62.47
2023-02-12T22:20:38.673Z,63.76
2023-02-12T22:23:08.809Z,64.91
2023-02-12T22:25:39.022Z,64.61
2023-02-12T22:28:09.651Z,65.56
2023-02-12T22:30:41.019Z,65.50
2023-02-12T22:33:11.430Z,67.10
2023-02-12T22:35:41.488Z,68.45
2023-02-12T22:38:11.483Z,66.73
2023-02-12T22:40:41.571Z,64.76
2023-02-12T22:43:11.579Z,63.40
2023-02-12T22:45:45.440Z,62.15
2023-02-12T22:48:15.592Z,62.39
2023-02-12T22:50:45.696Z,63.85
2023-02-12T22:53:15.897Z,64.55
2023-02-12T22:55:46.000Z,65.88
2023-02-12T22:58:16.797Z,66.38
2023-02-12T23:00:46.938Z,68.96
2023-02-12T23:03:17.033Z,69.27
2023-02-12T23:05:47.024Z,69.14
2023-02-12T23:08:17.461Z,68.98
2023-02-12T23:10:47.508Z,68.67
2023-02-12T23:13:28.990Z,68.62
2023-02-12T23:16:00.397Z,68.47
2023-02-12T23:18:30.995Z,68.32
2023-02-12T23:21:01.585Z,68.68
2023-02-12T23:23:32.192Z,68.21
2023-02-12T23:26:02.485Z,68.42
2023-02-12T23:28:32.693Z,68.41
2023-02-12T23:31:03.400Z,68.08
2023-02-12T23:33:33.540Z,68.06
2023-02-12T23:36:04.490Z,68.00
2023-02-12T23:38:34.753Z,68.55
2023-02-12T23:41:04.829Z,69.62
2023-02-12T23:43:34.833Z,69.76
2023-02-12T23:46:05.429Z,69.93
2023-02-12T23:48:35.464Z,70.56
2023-02-12T23:51:05.855Z,70.12
2023-02-12T23:53:36.612Z,70.25
2023-02-12T23:56:07.068Z,70.49
2023-02-12T23:58:37.176Z,70.62
